createdAt,value
2023-05-19T00:02:08.669Z,55.65
2023-05-19T00:04:34.935Z,55.81
2023-05-19T00:07:02.095Z,55.49
2023-05-19T00:09:28.442Z,55.63
2023-05-19T00:11:54.709Z,55.57
2023-05-19T00:14:21.010Z,55.56
2023-05-19T00:16:47.602Z,55.57
2023-05-19T00:19:13.933Z,55.74
2023-05-19T00:21:40.273Z,55.40
2023-05-19T00:24:06.644Z,55.39
2023-05-19T00:26:32.902Z,55.62
2023-05-19T00:29:02.429Z,55.51
2023-05-19T00:31:28.768Z,55.61
2023-05-19T00:33:57.759Z,55.47
2023-05-19T00:36:24.131Z,55.71
2023-05-19T00:38:50.418Z,55.55
2023-05-19T00:41:16.703Z,55.60
2023-05-19T00:43:43.121Z,55.68
2023-05-19T00:46:09.677Z,55.63
2023-05-19T00:48:39.614Z,55.67
2023-05-19T00:51:05.877Z,55.76
2023-05-19T00:53:38.028Z,55.32
2023-05-19T00:56:04.285Z,55.93
2023-05-19T00:58:30.829Z,55.68
2023-05-19T01:00:57.265Z,55.75
2023-05-19T01:03:23.909Z,55.54
2023-05-19T01:05:50.244Z,55.56
2023-05-19T01:08:21.311Z,55.85
2023-05-19T01:10:47.548Z,55.48
2023-05-19T01:13:13.806Z,55.64
2023-05-19T01:15:40.121Z,55.53
2023-05-19T01:18:06.438Z,55.65
2023-05-19T01:20:32.949Z,55.64
2023-05-19T01:23:02.624Z,55.61
2023-05-19T01:25:29.082Z,55.66
2023-05-19T01:27:58.782Z,55.34
2023-05-19T01:30:25.023Z,55.63
2023-05-19T01:32:52.774Z,55.71
2023-05-19T01:35:21.750Z,55.75
2023-05-19T01:37:48.084Z,55.59
2023-05-19T01:40:17.900Z,55.68
2023-05-19T01:42:48.214Z,55.45
2023-05-19T01:45:15.234Z,55.39
2023-05-19T01:47:43.612Z,55.48
2023-05-19T01:50:16.164Z,55.35
2023-05-19T01:52:42.441Z,55.55
2023-05-19T01:55:08.902Z,55.64
2023-05-19T01:57:37.774Z,55.38
2023-05-19T02:00:04.038Z,55.68
2023-05-19T02:02:30.380Z,55.53
2023-05-19T02:04:57.929Z,55.53
2023-05-19T02:07:24.179Z,55.75
2023-05-19T02:09:50.983Z,55.47
2023-05-19T02:12:17.317Z,55.62
2023-05-19T02:14:43.578Z,55.24
2023-05-19T02:17:09.820Z,55.64
2023-05-19T02:19:43.107Z,55.30
2023-05-19T02:22:09.369Z,55.39
2023-05-19T02:24:35.639Z,55.64
2023-05-19T02:27:05.585Z,55.52
2023-05-19T02:29:31.859Z,55.48
2023-05-19T02:31:58.257Z,55.52
2023-05-19T02:34:24.643Z,55.38
2023-05-19T02:36:53.926Z,55.60
2023-05-19T02:39:25.233Z,55.58
2023-05-19T02:41:53.489Z,55.12
2023-05-19T02:44:20.408Z,55.59
2023-05-19T02:46:46.909Z,55.27
2023-05-19T02:49:18.031Z,55.60
2023-05-19T02:51:46.210Z,55.43
2023-05-19T02:54:12.516Z,55.45
2023-05-19T02:56:39.916Z,55.66
2023-05-19T02:59:06.257Z,55.59
2023-05-19T03:01:33.169Z,55.25
2023-05-19T03:04:00.893Z,55.54
2023-05-19T03:06:29.072Z,55.42
2023-05-19T03:08:55.417Z,55.47
2023-05-19T03:11:21.688Z,55.50
2023-05-19T03:13:54.136Z,55.28
2023-05-19T03:16:20.415Z,55.41
2023-05-19T03:18:49.672Z,55.62
2023-05-19T03:21:18.904Z,55.49
2023-05-19T03:23:47.938Z,55.42
2023-05-19T03:26:14.195Z,55.54
2023-05-19T03:28:42.112Z,55.45
2023-05-19T03:31:10.561Z,55.34
2023-05-19T03:33:40.836Z,55.29
2023-05-19T03:36:07.443Z,55.38
2023-05-19T03:38:37.324Z,55.33
2023-05-19T03:41:03.582Z,55.46
2023-05-19T03:43:37.178Z,55.26
2023-05-19T03:46:03.458Z,55.39
2023-05-19T03:48:29.828Z,55.43
2023-05-19T03:50:56.079Z,55.35
2023-05-19T03:53:22.349Z,55.50
2023-05-19T03:55:50.476Z,55.61
2023-05-19T03:58:18.411Z,55.48
2023-05-19T04:00:47.439Z,55.58
2023-05-19T04:03:15.268Z,55.54
2023-05-19T04:05:41.667Z,55.46
2023-05-19T04:08:10.229Z,55.50
2023-05-19T04:10:36.519Z,55.63
2023-05-19T04:13:02.809Z,55.42
2023-05-19T04:15:29.119Z,55.28
2023-05-19T04:17:55.680Z,55.27
2023-05-19T04:20:22.027Z,55.45
2023-05-19T04:22:48.265Z,55.66
2023-05-19T04:25:15.121Z,55.90
2023-05-19T04:27:41.432Z,55.46
2023-05-19T04:30:07.724Z,55.48
2023-05-19T04:32:33.985Z,55.51
2023-05-19T04:35:00.309Z,55.61
2023-05-19T04:37:26.648Z,55.46
2023-05-19T04:39:53.729Z,55.56
2023-05-19T04:42:23.511Z,55.48
2023-05-19T04:44:49.817Z,55.65
2023-05-19T04:47:17.422Z,55.62
2023-05-19T04:49:43.662Z,55.29
2023-05-19T04:52:09.998Z,55.59
2023-05-19T04:54:40.115Z,55.35
2023-05-19T04:57:06.383Z,55.71
2023-05-19T04:59:34.247Z,55.53
2023-05-19T05:02:00.595Z,55.42
2023-05-19T05:04:30.417Z,55.69
2023-05-19T05:06:56.752Z,55.42
2023-05-19T05:09:22.990Z,55.47
2023-05-19T05:11:50.881Z,55.31
2023-05-19T05:14:17.444Z,55.78
2023-05-19T05:16:43.802Z,55.49
2023-05-19T05:19:13.599Z,55.88
2023-05-19T05:21:43.738Z,55.74
2023-05-19T05:24:09.980Z,55.77
2023-05-19T05:26:36.937Z,55.60
2023-05-19T05:29:03.166Z,55.98
2023-05-19T05:31:29.418Z,55.82
2023-05-19T05:33:58.490Z,55.59
2023-05-19T05:36:29.910Z,55.59
2023-05-19T05:38:56.249Z,55.59
2023-05-19T05:41:23.558Z,55.49
2023-05-19T05:43:49.810Z,55.83
2023-05-19T05:46:16.135Z,55.81
2023-05-19T05:48:42.418Z,55.63
2023-05-19T05:51:12.281Z,55.68
2023-05-19T05:53:38.632Z,55.67
2023-05-19T05:56:04.867Z,55.88
2023-05-19T05:58:37.336Z,55.61
2023-05-19T06:01:03.681Z,55.92
2023-05-19T06:03:30.147Z,55.69
2023-05-19T06:05:56.676Z,55.63
2023-05-19T06:08:27.851Z,55.89
2023-05-19T06:10:54.187Z,55.74
2023-05-19T06:13:20.543Z,55.98
2023-05-19T06:15:50.566Z,55.68
2023-05-19T06:18:16.848Z,55.70
2023-05-19T06:20:46.146Z,55.99
2023-05-19T06:23:12.598Z,55.98
2023-05-19T06:25:39.296Z,55.87
2023-05-19T06:28:05.709Z,55.62
2023-05-19T06:30:33.730Z,56.03
2023-05-19T06:33:00.256Z,55.82
2023-05-19T06:35:30.343Z,55.87
2023-05-19T06:37:56.606Z,56.04
2023-05-19T06:40:22.883Z,56.09
2023-05-19T06:42:49.293Z,56.04
2023-05-19T06:45:18.251Z,55.90
2023-05-19T06:47:44.524Z,56.22
2023-05-19T06:50:10.865Z,55.85
2023-05-19T06:52:37.151Z,55.83
2023-05-19T06:55:03.398Z,56.22
2023-05-19T06:57:31.071Z,56.07
2023-05-19T06:59:58.871Z,56.10
2023-05-19T07:02:25.477Z,55.98
2023-05-19T07:04:57.252Z,56.01
2023-05-19T07:07:23.778Z,55.90
2023-05-19T07:09:50.058Z,55.90
2023-05-19T07:12:16.345Z,55.88
2023-05-19T07:14:46.287Z,56.03
2023-05-19T07:17:17.329Z,56.32
2023-05-19T07:19:43.662Z,55.83
2023-05-19T07:22:09.915Z,56.00
2023-05-19T07:24:36.162Z,56.14
2023-05-19T07:27:02.883Z,55.79
2023-05-19T07:29:32.189Z,55.94
2023-05-19T07:32:02.335Z,55.77
2023-05-19T07:34:28.885Z,55.98
2023-05-19T07:37:00.186Z,55.94
2023-05-19T07:39:30.405Z,55.83
2023-05-19T07:42:00.059Z,55.58
2023-05-19T07:44:26.403Z,55.80
2023-05-19T07:46:53.389Z,55.66
2023-05-19T07:49:19.678Z,55.78
2023-05-19T07:51:45.926Z,55.56
2023-05-19T07:54:14.605Z,55.90
2023-05-19T07:56:42.377Z,56.05
2023-05-19T07:59:08.683Z,55.94
2023-05-19T08:01:34.925Z,55.72
2023-05-19T08:04:03.305Z,55.94
2023-05-19T08:06:31.983Z,56.17
2023-05-19T08:08:58.420Z,56.05
2023-05-19T08:11:26.408Z,56.11
2023-05-19T08:13:52.891Z,55.84
2023-05-19T08:16:24.449Z,56.34
2023-05-19T08:18:50.808Z,56.24
2023-05-19T08:21:17.070Z,56.04
2023-05-19T08:23:43.328Z,56.26
2023-05-19T08:26:09.584Z,56.62
2023-05-19T08:28:35.940Z,56.26
2023-05-19T08:31:02.341Z,56.11
2023-05-19T08:33:32.801Z,56.17
2023-05-19T08:35:59.099Z,56.39
2023-05-19T08:38:25.371Z,56.20
2023-05-19T08:40:51.659Z,55.78
2023-05-19T08:43:20.524Z,56.01
2023-05-19T08:45:47.362Z,56.11
2023-05-19T08:48:13.721Z,56.17
2023-05-19T08:50:45.191Z,55.91
2023-05-19T08:53:18.282Z,55.98
2023-05-19T08:55:57.786Z,55.85
2023-05-19T08:58:24.145Z,55.78
2023-05-19T09:00:50.586Z,55.92
2023-05-19T09:03:22.842Z,55.99
2023-05-19T09:05:49.695Z,55.87
2023-05-19T09:08:16.041Z,56.16
2023-05-19T09:10:52.303Z,55.92
2023-05-19T09:13:22.933Z,55.96
2023-05-19T09:15:52.882Z,55.67
2023-05-19T09:18:19.138Z,56.10
2023-05-19T09:20:49.527Z,55.93
2023-05-19T09:23:15.774Z,55.98
2023-05-19T09:25:42.066Z,55.95
2023-05-19T09:28:12.939Z,55.97
2023-05-19T09:30:39.198Z,55.99
2023-05-19T09:33:05.679Z,56.08
2023-05-19T09:35:32.396Z,56.11
2023-05-19T09:37:58.761Z,56.49
2023-05-19T09:40:25.347Z,56.20
2023-05-19T09:42:51.784Z,56.50
2023-05-19T09:45:18.121Z,56.37
2023-05-19T09:47:44.618Z,56.34
2023-05-19T09:50:11.388Z,56.84
2023-05-19T09:52:39.392Z,56.49
2023-05-19T09:55:05.740Z,57.04
2023-05-19T09:57:31.990Z,56.90
2023-05-19T10:00:03.590Z,56.68
2023-05-19T10:02:30.569Z,57.06
2023-05-19T10:04:57.982Z,57.32
2023-05-19T10:07:24.444Z,57.32
2023-05-19T10:09:50.987Z,57.20
2023-05-19T10:12:17.314Z,57.07
2023-05-19T10:14:48.183Z,56.90
2023-05-19T10:17:14.510Z,57.31
2023-05-19T10:19:40.797Z,57.08
2023-05-19T10:22:12.314Z,57.44
2023-05-19T10:24:42.313Z,57.18
2023-05-19T10:27:12.080Z,57.49
2023-05-19T10:29:40.712Z,57.08
2023-05-19T10:32:09.749Z,57.26
2023-05-19T10:34:36.013Z,57.23
2023-05-19T10:37:07.504Z,57.27
2023-05-19T10:39:35.882Z,57.30
2023-05-19T10:42:02.227Z,57.30
2023-05-19T10:44:28.521Z,56.92
2023-05-19T10:46:56.749Z,57.16
2023-05-19T10:49:23.409Z,57.17
2023-05-19T10:51:49.701Z,57.20
2023-05-19T10:54:16.192Z,57.12
2023-05-19T10:56:42.615Z,57.04
2023-05-19T10:59:08.980Z,56.86
2023-05-19T11:01:35.350Z,57.27
2023-05-19T11:04:01.782Z,57.13
2023-05-19T11:06:28.280Z,57.01
2023-05-19T11:08:57.404Z,57.05
2023-05-19T11:11:25.294Z,57.33
2023-05-19T11:13:51.640Z,57.24
2023-05-19T11:16:18.287Z,57.32
2023-05-19T11:18:44.751Z,57.46
2023-05-19T11:21:17.568Z,57.44
2023-05-19T11:23:43.878Z,57.17
2023-05-19T11:26:10.249Z,57.38
2023-05-19T11:28:36.515Z,57.24
2023-05-19T11:31:04.997Z,57.54
2023-05-19T11:33:31.395Z,57.11
2023-05-19T11:35:58.178Z,57.52
2023-05-19T11:38:24.793Z,57.38
2023-05-19T11:40:52.674Z,57.48
2023-05-19T11:43:25.637Z,57.75
2023-05-19T11:45:55.146Z,57.42
2023-05-19T11:48:24.552Z,57.17
2023-05-19T11:50:54.533Z,57.71
2023-05-19T11:53:21.041Z,57.35
2023-05-19T11:55:47.707Z,57.06
2023-05-19T11:58:14.267Z,57.25
2023-05-19T12:00:40.907Z,57.56
2023-05-19T12:03:10.342Z,57.67
2023-05-19T12:05:39.874Z,57.28
2023-05-19T12:08:08.494Z,57.28
2023-05-19T12:10:38.587Z,57.17
2023-05-19T12:13:04.918Z,56.99
2023-05-19T12:15:35.937Z,57.40
2023-05-19T12:18:02.405Z,57.06
2023-05-19T12:20:29.911Z,57.38
2023-05-19T12:22:57.663Z,57.52
2023-05-19T12:25:27.842Z,57.25
2023-05-19T12:27:55.469Z,57.44
2023-05-19T12:30:22.450Z,57.40
2023-05-19T12:32:49.540Z,57.58
2023-05-19T12:35:15.868Z,57.68
2023-05-19T12:37:45.429Z,57.63
2023-05-19T12:40:11.701Z,57.72
2023-05-19T12:42:38.012Z,57.75
2023-05-19T12:45:04.328Z,58.01
2023-05-19T12:47:30.645Z,58.17
2023-05-19T12:49:57.126Z,57.55
2023-05-19T12:52:23.388Z,57.90
2023-05-19T12:54:49.665Z,58.23
2023-05-19T12:57:15.972Z,58.04
2023-05-19T12:59:43.511Z,58.37
2023-05-19T13:02:10.012Z,57.93
2023-05-19T13:04:38.169Z,57.96
2023-05-19T13:07:04.431Z,58.34
2023-05-19T13:09:30.789Z,58.33
2023-05-19T13:11:57.050Z,58.20
2023-05-19T13:14:23.305Z,58.25
2023-05-19T13:16:52.600Z,58.41
2023-05-19T13:21:49.380Z,58.47
2023-05-19T13:24:21.380Z,58.50
2023-05-19T13:26:47.832Z,58.56
2023-05-19T13:29:14.081Z,58.71
2023-05-19T13:31:44.131Z,58.62
2023-05-19T13:34:15.655Z,58.68
2023-05-19T13:36:42.048Z,58.58
2023-05-19T13:39:11.477Z,59.04
2023-05-19T13:41:37.876Z,58.73
2023-05-19T13:44:04.201Z,58.78
2023-05-19T13:46:44.166Z,58.88
2023-05-19T13:49:12.169Z,59.04
2023-05-19T13:51:38.457Z,58.83
2023-05-19T13:54:08.639Z,58.99
2023-05-19T13:56:41.964Z,58.71
2023-05-19T13:59:10.950Z,58.96
2023-05-19T14:01:37.306Z,59.02
2023-05-19T14:04:05.360Z,58.64
2023-05-19T14:06:31.867Z,58.74
2023-05-19T14:09:02.441Z,58.79
2023-05-19T14:11:28.691Z,58.86
2023-05-19T14:13:54.937Z,58.69
2023-05-19T14:16:21.516Z,58.75
2023-05-19T14:18:47.950Z,58.84
2023-05-19T14:21:14.310Z,58.98
2023-05-19T14:23:40.678Z,58.69
2023-05-19T14:26:09.327Z,58.79
2023-05-19T14:28:35.730Z,58.84
2023-05-19T14:31:01.986Z,58.82
2023-05-19T14:33:34.902Z,58.88
2023-05-19T14:36:04.954Z,58.81
2023-05-19T14:38:31.390Z,58.95
2023-05-19T14:40:57.684Z,58.87
2023-05-19T14:43:26.453Z,59.04
2023-05-19T14:45:55.818Z,58.99
2023-05-19T14:48:22.104Z,58.97
2023-05-19T14:50:52.950Z,59.19
2023-05-19T14:53:19.285Z,59.25
2023-05-19T14:55:45.576Z,58.91
2023-05-19T14:58:26.979Z,59.13
2023-05-19T15:00:55.116Z,59.14
2023-05-19T15:03:21.491Z,58.89
2023-05-19T15:05:47.826Z,58.81
2023-05-19T15:08:14.094Z,59.08
2023-05-19T15:10:40.336Z,59.07
2023-05-19T15:13:06.757Z,59.18
2023-05-19T15:15:37.590Z,58.82
2023-05-19T15:18:03.887Z,59.05
2023-05-19T15:20:30.240Z,59.34
2023-05-19T15:22:56.527Z,59.42
2023-05-19T15:25:25.736Z,59.08
2023-05-19T15:27:52.937Z,58.95
2023-05-19T15:30:19.242Z,59.16
2023-05-19T15:32:47.757Z,59.32
2023-05-19T15:35:19.026Z,59.10
2023-05-19T15:37:47.080Z,59.37
2023-05-19T15:40:13.398Z,59.08
2023-05-19T15:42:43.169Z,59.14
2023-05-19T15:45:10.161Z,58.82
2023-05-19T15:47:36.447Z,58.94
2023-05-19T15:50:02.842Z,58.70
2023-05-19T15:52:29.139Z,58.70
2023-05-19T15:54:55.441Z,58.59
2023-05-19T15:57:21.698Z,58.63
2023-05-19T15:59:48.693Z,58.65
2023-05-19T16:02:15.029Z,58.30
2023-05-19T16:04:45.993Z,58.16
2023-05-19T16:07:15.496Z,58.01
2023-05-19T16:09:41.752Z,57.92
2023-05-19T16:12:07.990Z,58.15
2023-05-19T16:14:34.444Z,57.83
2023-05-19T16:17:00.810Z,57.57
2023-05-19T16:19:27.795Z,57.82
2023-05-19T16:21:54.221Z,57.41
2023-05-19T16:24:20.748Z,57.37
2023-05-19T16:26:47.000Z,57.29
2023-05-19T16:29:13.278Z,57.13
2023-05-19T16:31:49.614Z,57.71
2023-05-19T16:34:15.943Z,57.14
2023-05-19T16:36:47.221Z,57.53
2023-05-19T16:39:13.486Z,57.14
2023-05-19T16:41:45.386Z,57.35
2023-05-19T16:44:17.592Z,56.97
2023-05-19T16:46:44.801Z,57.36
2023-05-19T16:49:14.733Z,57.24
2023-05-19T16:51:49.514Z,57.07
2023-05-19T16:54:15.941Z,57.09
2023-05-19T16:56:45.413Z,57.06
2023-05-19T16:59:14.524Z,57.11
2023-05-19T17:01:41.022Z,57.11
2023-05-19T17:04:07.352Z,56.79
2023-05-19T17:06:33.688Z,57.01
2023-05-19T17:09:00.189Z,56.92
2023-05-19T17:11:26.537Z,56.91
2023-05-19T17:13:52.839Z,56.73
2023-05-19T17:16:29.104Z,56.72
2023-05-19T17:18:56.426Z,56.58
2023-05-19T17:21:22.722Z,56.48
2023-05-19T17:23:51.024Z,56.58
2023-05-19T17:26:17.493Z,56.43
2023-05-19T17:28:43.791Z,56.31
2023-05-19T17:31:10.037Z,56.73
2023-05-19T17:33:38.293Z,56.59
2023-05-19T17:36:04.574Z,56.30
2023-05-19T17:38:31.365Z,56.33
2023-05-19T17:41:01.394Z,56.45
2023-05-19T17:43:27.695Z,56.50
2023-05-19T17:45:54.034Z,56.28
2023-05-19T17:48:20.304Z,56.26
2023-05-19T17:50:48.240Z,56.25
2023-05-19T17:53:14.559Z,56.16
2023-05-19T17:55:42.899Z,56.26
2023-05-19T17:58:09.209Z,56.55
2023-05-19T18:00:35.652Z,56.45
2023-05-19T18:03:02.658Z,56.39
2023-05-19T18:05:30.713Z,56.35
2023-05-19T18:07:57.081Z,56.15
2023-05-19T18:10:23.346Z,56.25
2023-05-19T18:12:52.162Z,56.37
2023-05-19T18:15:20.024Z,56.16
2023-05-19T18:17:46.320Z,56.42
2023-05-19T18:20:12.630Z,56.06
2023-05-19T18:22:39.032Z,55.83
2023-05-19T18:25:08.289Z,56.14
2023-05-19T18:27:34.561Z,56.07
2023-05-19T18:30:00.987Z,55.98
2023-05-19T18:32:31.416Z,56.08
2023-05-19T18:34:57.725Z,56.08
2023-05-19T18:37:24.051Z,56.31
2023-05-19T18:39:50.342Z,56.19
2023-05-19T18:42:16.581Z,56.07
2023-05-19T18:44:42.907Z,55.86
2023-05-19T18:47:11.814Z,56.02
2023-05-19T18:49:38.182Z,56.25
2023-05-19T18:52:06.812Z,55.96
2023-05-19T18:54:37.553Z,56.15
2023-05-19T18:57:06.361Z,55.96
2023-05-19T18:59:32.656Z,55.90
2023-05-19T19:02:00.281Z,56.02
2023-05-19T19:04:31.991Z,56.06
2023-05-19T19:07:01.048Z,56.28
2023-05-19T19:09:29.461Z,55.89
2023-05-19T19:11:59.934Z,56.01
2023-05-19T19:14:28.973Z,55.98
2023-05-19T19:16:55.295Z,56.15
2023-05-19T19:19:21.797Z,55.89
2023-05-19T19:21:49.558Z,55.93
2023-05-19T19:24:19.323Z,56.03
2023-05-19T19:26:45.582Z,55.97
2023-05-19T19:29:11.941Z,55.90
2023-05-19T19:31:38.384Z,56.21
2023-05-19T19:34:10.314Z,56.10
2023-05-19T19:36:38.067Z,56.07
2023-05-19T19:39:04.389Z,56.05
2023-05-19T19:41:33.587Z,56.04
2023-05-19T19:43:59.849Z,56.12
2023-05-19T19:46:26.175Z,56.21
2023-05-19T19:48:52.501Z,56.29
2023-05-19T19:51:21.102Z,55.95
2023-05-19T19:53:49.155Z,56.02
2023-05-19T19:56:15.620Z,55.86
2023-05-19T19:58:41.921Z,56.30
2023-05-19T20:01:11.728Z,56.29
2023-05-19T20:03:38.182Z,56.33
2023-05-19T20:06:07.420Z,56.14
2023-05-19T20:08:33.711Z,56.03
2023-05-19T20:11:01.239Z,56.12
2023-05-19T20:13:32.816Z,56.26
2023-05-19T20:16:02.921Z,56.35
2023-05-19T20:18:29.832Z,55.99
2023-05-19T20:20:56.274Z,56.21
2023-05-19T20:23:24.149Z,56.06
2023-05-19T20:26:09.409Z,55.86
2023-05-19T20:28:38.445Z,56.01
2023-05-19T20:31:05.842Z,56.23
2023-05-19T20:33:32.194Z,56.15
2023-05-19T20:35:58.499Z,56.25
2023-05-19T20:38:24.799Z,55.93
2023-05-19T20:40:51.450Z,56.32
2023-05-19T20:43:21.331Z,56.40
2023-05-19T20:45:47.763Z,55.89
2023-05-19T20:48:14.100Z,56.04
2023-05-19T20:50:40.509Z,55.86
2023-05-19T20:53:09.266Z,56.15
2023-05-19T20:55:37.657Z,56.12
2023-05-19T20:58:03.972Z,55.93
2023-05-19T21:00:31.577Z,56.08
2023-05-19T21:03:03.706Z,55.83
2023-05-19T21:05:30.047Z,56.15
2023-05-19T21:08:02.534Z,55.99
2023-05-19T21:10:34.969Z,55.96
2023-05-19T21:13:01.610Z,55.91
2023-05-19T21:15:27.865Z,56.17
2023-05-19T21:17:54.230Z,56.06
2023-05-19T21:20:20.550Z,55.96
2023-05-19T21:22:47.894Z,55.96
2023-05-19T21:25:14.162Z,56.13
2023-05-19T21:27:41.006Z,56.16
2023-05-19T21:30:12.456Z,56.32
2023-05-19T21:32:41.965Z,56.29
2023-05-19T21:35:08.285Z,56.04
2023-05-19T21:37:34.698Z,55.99
2023-05-19T21:40:05.254Z,55.96
2023-05-19T21:42:31.585Z,56.16
2023-05-19T21:45:00.501Z,56.36
2023-05-19T21:47:29.624Z,56.36
2023-05-19T21:49:55.901Z,56.37
2023-05-19T21:52:22.455Z,56.30
2023-05-19T21:54:48.722Z,55.97
2023-05-19T21:57:15.041Z,56.21
2023-05-19T21:59:42.650Z,55.91
2023-05-19T22:02:12.782Z,56.08
2023-05-19T22:04:39.352Z,56.02
2023-05-19T22:07:09.790Z,56.29
2023-05-19T22:09:36.115Z,56.11
2023-05-19T22:12:07.672Z,55.85
2023-05-19T22:14:33.971Z,56.03
2023-05-19T22:17:00.239Z,56.04
2023-05-19T22:19:26.663Z,56.27
2023-05-19T22:22:01.935Z,56.04
2023-05-19T22:24:33.284Z,56.21
2023-05-19T22:26:59.557Z,56.09
2023-05-19T22:29:27.247Z,56.08
2023-05-19T22:31:53.485Z,56.42
2023-05-19T22:34:19.862Z,56.40
2023-05-19T22:36:46.184Z,56.41
2023-05-19T22:39:12.584Z,56.43
2023-05-19T22:41:39.924Z,56.43
2023-05-19T22:44:08.058Z,56.15
2023-05-19T22:46:34.370Z,56.43
2023-05-19T22:49:00.761Z,56.22
2023-05-19T22:51:28.045Z,56.15
2023-05-19T22:53:56.664Z,56.27
2023-05-19T22:56:22.922Z,56.38
2023-05-19T22:58:49.158Z,56.66
2023-05-19T23:01:15.436Z,56.20
2023-05-19T23:03:41.772Z,56.27
2023-05-19T23:06:08.045Z,56.36
2023-05-19T23:08:34.344Z,56.20
2023-05-19T23:11:00.609Z,56.17
2023-05-19T23:13:26.867Z,56.23
2023-05-19T23:15:56.673Z,56.43
2023-05-19T23:18:23.046Z,56.54
2023-05-19T23:20:52.270Z,56.67
2023-05-19T23:23:20.095Z,56.29
2023-05-19T23:25:52.987Z,56.51
2023-05-19T23:28:19.544Z,56.60
2023-05-19T23:30:47.398Z,56.36
2023-05-19T23:33:13.650Z,56.36
2023-05-19T23:35:39.957Z,56.59
2023-05-19T23:38:06.213Z,56.28
2023-05-19T23:40:32.473Z,56.45
2023-05-19T23:42:58.707Z,56.21
2023-05-19T23:45:28.879Z,56.41
2023-05-19T23:47:58.433Z,56.20
2023-05-19T23:50:24.943Z,56.58
2023-05-19T23:52:52.080Z,56.30
2023-05-19T23:55:22.731Z,56.23
2023-05-19T23:57:49.093Z,56.35
